Time;durP1;ratioP1;P1;durP2;ratioP2;P2;SDS_P1;SDS_P2;PMS_P1;PMS_P2;Temp;Humidity;BMP_temperature;BMP_pressure;BME280_temperature;BME280_humidity;BME280_pressure;Samples;Min_cycle;Max_cycle;Signal;HPM_P1;HPM_P2
2021/07/01 00:00:01;;;;;;;4.93;4.40;;;;;;;19.01;67.48;97797.16;126562;1092;22773;-82
2021/07/01 00:02:31;;;;;;;5.68;5.00;;;;;;;18.97;67.71;97796.98;126554;1092;22785;-82
2021/07/01 00:05:15;;;;;;;5.35;4.20;;;;;;;18.94;67.70;97805.88;126366;1092;22969;-83
2021/07/01 00:07:43;;;;;;;4.83;4.23;;;;;;;18.91;68.16;97801.83;126467;1093;26245;-83
2021/07/01 00:10:27;;;;;;;6.10;4.73;;;;;;;18.90;68.33;97807.66;126532;1093;25986;-82
2021/07/01 00:12:57;;;;;;;5.93;4.18;;;;;;;18.85;68.54;97800.31;126537;1092;25918;-82
2021/07/01 00:15:38;;;;;;;5.45;4.40;;;;;;;18.76;68.45;97797.47;126459;1092;22764;-82
2021/07/01 00:18:05;;;;;;;10.03;5.03;;;;;;;18.66;68.58;97783.97;126475;1093;22863;-82
2021/07/01 00:20:33;;;;;;;5.73;4.70;;;;;;;18.59;68.93;97784.40;126561;1093;22765;-82
2021/07/01 00:23:00;;;;;;;5.15;4.60;;;;;;;18.55;69.23;97782.58;126426;1093;23386;-82
2021/07/01 00:25:27;;;;;;;5.53;4.90;;;;;;;18.54;69.16;97775.45;126709;1093;22784;-82
2021/07/01 00:27:54;;;;;;;6.30;5.25;;;;;;;18.50;69.32;97782.70;126400;1092;22767;-82
2021/07/01 00:30:22;;;;;;;7.23;5.00;;;;;;;18.46;69.67;97776.99;126332;1093;22742;-82
2021/07/01 00:32:50;;;;;;;6.85;5.28;;;;;;;18.44;69.62;97776.50;126494;1092;22909;-82
2021/07/01 00:35:32;;;;;;;9.03;5.23;;;;;;;18.37;69.84;97773.37;126543;1093;26315;-82
2021/07/01 00:37:59;;;;;;;5.85;4.48;;;;;;;18.31;70.03;97755.31;126484;1093;22939;-82
2021/07/01 00:40:25;;;;;;;6.50;4.80;;;;;;;18.19;69.87;97761.40;126311;1092;22812;-82
2021/07/01 00:42:52;;;;;;;9.05;5.40;;;;;;;18.03;70.52;97758.19;126466;1093;22732;-82
2021/07/01 00:45:20;;;;;;;7.13;5.07;;;;;;;17.91;71.07;97749.66;126539;1092;22794;-82
2021/07/01 00:47:47;;;;;;;7.78;5.70;;;;;;;17.80;71.41;97760.06;126600;1092;25874;-82
2021/07/01 00:50:15;;;;;;;7.63;5.58;;;;;;;17.79;72.13;97758.41;126513;1093;26296;-82
2021/07/01 00:52:57;;;;;;;7.55;4.95;;;;;;;17.78;72.26;97756.80;126471;1092;24566;-82
2021/07/01 00:55:39;;;;;;;7.48;4.90;;;;;;;17.78;72.54;97754.86;126489;1092;22855;-82
2021/07/01 00:58:06;;;;;;;7.77;4.80;;;;;;;17.83;72.49;97756.70;126429;1093;22829;-82
2021/07/01 01:00:55;;;;;;;6.55;5.28;;;;;;;17.87;72.42;97751.41;126614;1092;22794;-82
2021/07/01 01:03:39;;;;;;;8.20;5.63;;;;;;;17.91;72.49;97750.46;126402;1092;25405;-82
2021/07/01 01:06:08;;;;;;;6.35;4.73;;;;;;;17.94;72.29;97755.36;126512;1092;22815;-82
2021/07/01 01:08:39;;;;;;;7.33;4.50;;;;;;;17.98;72.01;97748.09;126617;1093;22752;-82
2021/07/01 01:11:24;;;;;;;7.30;4.88;;;;;;;18.04;72.50;97765.31;126487;1093;22805;-82
2021/07/01 01:14:11;;;;;;;9.53;4.77;;;;;;;18.08;72.09;97769.09;126593;1092;22770;-82
2021/07/01 01:16:44;;;;;;;7.55;5.30;;;;;;;18.10;71.91;97766.03;126413;1093;24129;-82
2021/07/01 01:19:12;;;;;;;9.63;5.25;;;;;;;18.13;71.62;97768.98;126517;1093;23306;-82
2021/07/01 01:21:43;;;;;;;11.95;5.30;;;;;;;18.15;72.07;97769.48;126468;1092;22772;-82
2021/07/01 01:24:10;;;;;;;9.13;5.23;;;;;;;18.17;72.16;97781.00;126383;1093;25989;-82
2021/07/01 01:26:38;;;;;;;5.03;4.48;;;;;;;18.20;72.15;97782.30;126641;1092;22923;-83
2021/07/01 01:29:05;;;;;;;7.40;4.88;;;;;;;18.18;72.21;97788.16;126501;1093;22771;-82
2021/07/01 01:31:36;;;;;;;5.98;5.38;;;;;;;18.21;72.36;97789.45;126337;1093;22896;-82
2021/07/01 01:34:17;;;;;;;7.98;6.00;;;;;;;18.19;72.58;97791.71;126377;1093;22757;-82
2021/07/01 01:36:45;;;;;;;7.90;5.25;;;;;;;18.18;72.84;97784.56;126474;1093;22848;-82
2021/07/01 01:39:12;;;;;;;6.63;4.60;;;;;;;18.12;72.20;97781.11;126775;1093;27383;-82
2021/07/01 01:41:41;;;;;;;6.03;5.40;;;;;;;18.12;72.57;97778.36;126488;1093;22785;-82
2021/07/01 01:44:08;;;;;;;8.93;5.38;;;;;;;18.14;72.64;97784.37;126607;1093;23201;-82
2021/07/01 01:46:39;;;;;;;8.80;5.50;;;;;;;18.12;72.45;97791.33;126490;1093;22788;-82
2021/07/01 01:49:09;;;;;;;5.88;5.28;;;;;;;18.13;72.35;97787.43;126420;1093;22765;-82
2021/07/01 01:51:38;;;;;;;14.30;6.25;;;;;;;18.13;72.29;97785.52;126623;1092;22948;-82
2021/07/01 01:54:06;;;;;;;7.15;4.95;;;;;;;18.17;72.15;97788.46;126592;1093;23795;-82
2021/07/01 01:56:48;;;;;;;7.65;5.53;;;;;;;18.20;72.21;97790.57;126548;1093;27173;-82
2021/07/01 01:59:25;;;;;;;7.73;5.63;;;;;;;18.19;72.27;97797.23;126454;1093;25970;-82
2021/07/01 02:02:18;;;;;;;9.95;5.88;;;;;;;18.16;72.88;97795.89;126369;1091;22846;-82
2021/07/01 02:05:07;;;;;;;9.58;6.05;;;;;;;18.12;73.06;97791.33;126359;1093;22842;-82
2021/07/01 02:07:34;;;;;;;;;;;;;;;18.08;73.13;97784.79;126698;1092;24134;-82
2021/07/01 02:10:09;;;;;;;8.85;5.48;;;;;;;17.99;73.20;97793.01;126652;1093;22956;-82
2021/07/01 02:12:36;;;;;;;10.38;6.18;;;;;;;17.96;73.57;97797.18;126610;1092;22837;-82
2021/07/01 02:15:07;;;;;;;11.08;6.00;;;;;;;17.95;74.18;97792.78;126435;1093;22760;-82
2021/07/01 02:17:54;;;;;;;8.85;6.08;;;;;;;17.98;74.33;97802.38;126439;1093;22768;-82
2021/07/01 02:20:24;;;;;;;7.50;6.00;;;;;;;18.00;74.16;97809.20;126579;1092;22840;-82
2021/07/01 02:23:06;;;;;;;8.40;6.18;;;;;;;18.02;74.07;97806.14;126333;1093;22824;-82
2021/07/01 02:25:39;;;;;;;6.70;6.00;;;;;;;18.03;74.03;97803.08;126527;1093;25823;-82
2021/07/01 02:28:26;;;;;;;8.47;6.00;;;;;;;18.01;73.45;97810.84;126577;1093;27264;-82
2021/07/01 02:31:13;;;;;;;6.68;4.78;;;;;;;17.89;73.20;97810.56;126403;1093;22864;-82
2021/07/01 02:33:40;;;;;;;10.83;6.18;;;;;;;17.73;73.15;97811.99;126356;1092;22750;-82
2021/07/01 02:36:07;;;;;;;7.90;5.48;;;;;;;17.65;73.99;97806.09;126476;1093;27188;-82
2021/07/01 02:38:53;;;;;;;11.38;5.63;;;;;;;17.65;73.93;97799.74;126521;1092;22860;-82
2021/07/01 02:41:20;;;;;;;7.88;5.85;;;;;;;17.70;74.24;97801.59;126313;1093;22750;-82
2021/07/01 02:43:48;;;;;;;10.13;5.88;;;;;;;17.74;74.24;97794.33;126510;1091;22824;-82
2021/07/01 02:46:34;;;;;;;8.70;5.45;;;;;;;17.79;74.17;97799.73;126584;1093;25864;-82
2021/07/01 02:49:18;;;;;;;10.95;6.83;;;;;;;17.75;73.96;97790.47;126445;1093;22808;-82
2021/07/01 02:51:53;;;;;;;10.55;6.25;;;;;;;17.71;73.69;97797.72;126384;1091;23020;-82
2021/07/01 02:54:21;;;;;;;7.90;5.53;;;;;;;17.65;73.86;97802.50;126504;1093;22790;-82
2021/07/01 02:56:48;;;;;;;9.93;5.80;;;;;;;17.62;73.94;97806.70;126500;1092;22759;-82
2021/07/01 02:59:30;;;;;;;7.48;5.65;;;;;;;17.55;74.10;97814.55;126495;1092;26235;-82
2021/07/01 03:02:03;;;;;;;11.00;7.45;;;;;;;17.54;74.77;97818.41;126500;1092;26214;-79
2021/07/01 03:04:35;;;;;;;8.80;6.30;;;;;;;17.56;74.92;97801.59;126517;1093;22787;-82
2021/07/01 03:07:02;;;;;;;9.63;6.25;;;;;;;17.57;74.85;97800.48;126473;1092;22820;-82
2021/07/01 03:09:30;;;;;;;9.18;6.08;;;;;;;17.57;74.72;97800.48;126550;1093;22751;-82
2021/07/01 03:11:58;;;;;;;10.80;6.50;;;;;;;17.55;74.96;97799.98;126558;1092;22855;-82
2021/07/01 03:14:25;;;;;;;7.90;6.15;;;;;;;17.57;75.11;97805.98;126498;1093;22777;-82
2021/07/01 03:16:52;;;;;;;10.45;6.60;;;;;;;17.63;75.34;97802.80;126499;1093;26949;-82
2021/07/01 03:19:19;;;;;;;10.80;6.48;;;;;;;17.71;75.22;97806.78;126519;1093;23293;-82
2021/07/01 03:22:05;;;;;;;7.65;5.68;;;;;;;17.77;75.43;97802.79;126558;1092;22771;-82
2021/07/01 03:24:33;;;;;;;7.03;5.40;;;;;;;17.85;74.64;97801.27;126602;1092;25974;-82
2021/07/01 03:27:00;;;;;;;7.97;5.40;;;;;;;17.91;74.41;97808.31;126501;1093;22805;-82
2021/07/01 03:29:28;;;;;;;8.10;6.47;;;;;;;17.96;74.33;97797.18;126560;1093;22781;-82
2021/07/01 03:31:55;;;;;;;8.65;6.70;;;;;;;17.95;74.43;97791.98;126427;1093;22916;-82
2021/07/01 03:34:22;;;;;;;8.33;6.13;;;;;;;17.95;74.42;97792.78;126587;1092;26085;-82
2021/07/01 03:36:50;;;;;;;7.65;6.63;;;;;;;17.97;74.28;97795.23;126584;1093;22880;-82
2021/07/01 03:39:36;;;;;;;9.30;6.15;;;;;;;18.04;74.33;97798.38;126564;1092;25974;-82
2021/07/01 03:42:06;;;;;;;11.50;7.28;;;;;;;18.09;74.42;97806.53;126760;1092;22784;-81
2021/07/01 03:44:33;;;;;;;8.45;7.33;;;;;;;18.16;74.44;97798.65;126552;1092;22862;-81
2021/07/01 03:47:00;;;;;;;11.03;7.38;;;;;;;18.20;74.16;97805.19;126463;1092;25897;-81
2021/07/01 03:49:27;;;;;;;12.73;7.30;;;;;;;18.24;74.19;97804.55;126482;1093;24434;-81
2021/07/01 03:51:57;;;;;;;8.98;6.95;;;;;;;18.28;74.07;97813.84;126583;1091;22758;-81
2021/07/01 03:54:47;;;;;;;9.35;6.20;;;;;;;18.34;74.10;97809.82;126416;1093;26242;-81
2021/07/01 03:57:29;;;;;;;11.65;7.08;;;;;;;18.42;74.50;97806.33;126297;1093;23655;-82
2021/07/01 03:59:57;;;;;;;9.43;7.83;;;;;;;18.46;73.98;97807.33;126555;1092;24320;-81
2021/07/01 04:02:59;;;;;;;12.13;7.90;;;;;;;18.52;73.90;97816.28;126498;1091;25881;-81
2021/07/01 04:05:47;;;;;;;10.65;7.35;;;;;;;18.53;73.58;97815.97;126515;1093;22758;-81
2021/07/01 04:08:14;;;;;;;11.13;7.15;;;;;;;18.55;73.61;97816.47;126333;1093;22758;-81
2021/07/01 04:11:06;;;;;;;12.03;7.38;;;;;;;18.56;73.25;97820.06;126439;1092;25989;-81
2021/07/01 04:13:33;;;;;;;12.30;6.93;;;;;;;18.58;73.23;97834.34;126443;1092;23590;-81
2021/07/01 04:16:19;;;;;;;8.23;6.78;;;;;;;18.60;72.99;97834.84;126673;1092;22781;-81
2021/07/01 04:19:05;;;;;;;10.25;6.78;;;;;;;18.59;72.97;97834.04;126511;1093;22771;-81
2021/07/01 04:21:50;;;;;;;11.75;7.35;;;;;;;18.57;72.57;97832.70;126573;1092;22596;-81
2021/07/01 04:24:36;;;;;;;13.05;7.40;;;;;;;18.54;72.41;97817.61;126453;1092;22781;-81
2021/07/01 04:27:25;;;;;;;9.70;6.75;;;;;;;18.55;72.91;97826.69;126510;1092;22842;-81
2021/07/01 04:29:53;;;;;;;10.88;7.20;;;;;;;18.54;72.88;97825.89;126573;1093;22771;-81
2021/07/01 04:32:21;;;;;;;10.68;6.90;;;;;;;18.55;72.76;97829.45;126657;1093;22828;-81
2021/07/01 04:34:49;;;;;;;11.00;6.78;;;;;;;18.53;72.91;97818.73;126500;1093;24437;-81
2021/07/01 04:37:17;;;;;;;14.35;7.80;;;;;;;18.50;73.03;97813.86;126283;1093;22767;-81
2021/07/01 04:39:50;;;;;;;9.25;7.38;;;;;;;18.53;72.66;97824.24;126434;1092;22835;-81
2021/07/01 04:42:21;;;;;;;11.83;6.80;;;;;;;18.57;72.49;97821.67;126535;1093;22772;-81
2021/07/01 04:44:49;;;;;;;8.90;6.73;;;;;;;18.54;72.58;97825.08;126530;1093;22841;-81
2021/07/01 04:47:32;;;;;;;9.28;6.95;;;;;;;18.45;72.71;97822.25;126562;1093;22778;-81
2021/07/01 04:50:04;;;;;;;11.38;6.90;;;;;;;18.39;73.34;97815.22;126350;1093;22838;-81
2021/07/01 04:52:51;;;;;;;12.97;7.40;;;;;;;18.37;73.35;97817.48;126233;1093;22759;-81
2021/07/01 04:55:37;;;;;;;11.53;8.00;;;;;;;18.40;73.48;97819.62;126233;1093;22895;-81
2021/07/01 04:58:04;;;;;;;11.00;7.18;;;;;;;18.47;73.40;97816.41;126245;1092;27151;-81
2021/07/01 05:00:35;;;;;;;9.15;6.85;;;;;;;18.50;73.51;97815.78;126302;1093;22935;-82
2021/07/01 05:03:20;;;;;;;11.23;6.20;;;;;;;18.48;73.78;97815.28;126171;1093;25977;-81
2021/07/01 05:05:47;;;;;;;10.95;7.20;;;;;;;18.47;73.79;97810.89;126192;1093;22854;-81
2021/07/01 05:08:16;;;;;;;12.00;7.20;;;;;;;18.44;74.13;97814.29;126169;1093;22818;-81
2021/07/01 05:10:44;;;;;;;12.90;7.28;;;;;;;18.52;74.98;97808.01;126223;1092;22983;-81
2021/07/01 05:13:16;;;;;;;9.30;7.30;;;;;;;18.56;74.93;97812.59;126234;1093;22777;-81
2021/07/01 05:15:45;;;;;;;11.83;6.80;;;;;;;18.55;74.74;97819.22;126222;1093;22777;-81
2021/07/01 05:18:12;;;;;;;10.10;6.93;;;;;;;18.48;74.97;97813.34;126204;1093;22797;-82
2021/07/01 05:20:42;;;;;;;11.05;8.20;;;;;;;18.44;74.80;97819.80;126208;1093;25974;-82
2021/07/01 05:23:38;;;;;;;14.58;7.18;;;;;;;18.43;75.87;97807.94;125934;1093;24472;-82
2021/07/01 05:26:18;;;;;;;11.68;6.73;;;;;;;18.48;75.57;97807.82;126226;1093;22791;-82
2021/07/01 05:29:04;;;;;;;11.85;8.40;;;;;;;18.53;75.44;97804.13;126154;1093;22760;-81
2021/07/01 05:31:50;;;;;;;10.53;9.05;;;;;;;18.60;75.37;97808.08;126224;1093;24590;-81
2021/07/01 05:34:35;;;;;;;12.83;8.45;;;;;;;18.72;74.80;97809.47;126174;1093;26248;-82
2021/07/01 05:37:02;;;;;;;11.75;8.20;;;;;;;18.81;74.49;97821.37;126178;1093;22769;-81
2021/07/01 05:39:32;;;;;;;10.67;7.23;;;;;;;18.97;74.39;97832.86;126208;1093;22809;-81
2021/07/01 05:42:14;;;;;;;10.18;8.10;;;;;;;19.12;74.27;97826.94;126159;1093;22751;-81
2021/07/01 05:44:44;;;;;;;13.60;7.93;;;;;;;19.22;73.53;97831.36;126194;1092;26251;-82
2021/07/01 05:47:10;;;;;;;11.20;7.40;;;;;;;19.28;72.70;97841.15;126130;1093;22760;-81
2021/07/01 05:49:38;;;;;;;13.80;7.83;;;;;;;19.33;72.48;97845.70;126215;1093;22812;-81
2021/07/01 05:52:06;;;;;;;13.43;8.05;;;;;;;19.38;72.20;97845.56;126062;1093;22848;-81
2021/07/01 05:54:58;;;;;;;8.63;6.70;;;;;;;19.45;71.57;97836.83;126191;1092;24415;-81
2021/07/01 05:57:39;;;;;;;10.53;7.83;;;;;;;19.54;71.31;97840.43;126189;1093;22766;-81
2021/07/01 06:00:09;;;;;;;14.30;7.13;;;;;;;19.62;71.17;97836.90;126210;1093;22790;-81
2021/07/01 06:03:00;;;;;;;13.85;8.73;;;;;;;19.73;71.26;97835.49;126199;1093;26295;-81
2021/07/01 06:05:26;;;;;;;12.87;8.53;;;;;;;19.81;70.75;97839.41;126013;1093;23193;-81
2021/07/01 06:08:13;;;;;;;13.25;9.35;;;;;;;19.80;70.69;97839.75;126198;1093;27202;-81
2021/07/01 06:10:43;;;;;;;12.58;8.35;;;;;;;19.79;70.43;97847.20;126176;1093;22806;-82
2021/07/01 06:13:11;;;;;;;15.10;8.68;;;;;;;19.81;70.60;97844.92;126165;1092;27387;-81
2021/07/01 06:15:38;;;;;;;13.40;8.10;;;;;;;19.89;70.56;97846.11;126175;1093;22812;-81
2021/07/01 06:18:06;;;;;;;17.05;8.48;;;;;;;19.97;70.38;97847.25;126033;1093;22845;-81
2021/07/01 06:20:33;;;;;;;14.88;9.45;;;;;;;20.03;70.17;97843.22;126097;1093;22880;-81
2021/07/01 06:23:00;;;;;;;14.03;8.90;;;;;;;20.07;70.43;97844.99;126111;1093;25951;-81
2021/07/01 06:25:27;;;;;;;18.60;9.75;;;;;;;20.15;69.97;97840.63;126276;1092;22765;-81
2021/07/01 06:27:55;;;;;;;20.75;10.50;;;;;;;20.23;69.95;97847.30;126020;1093;22930;-81
2021/07/01 06:30:23;;;;;;;17.65;9.85;;;;;;;20.26;69.23;97855.77;126199;1093;22851;-81
2021/07/01 06:32:55;;;;;;;15.60;10.03;;;;;;;20.28;69.49;97852.67;126252;1092;22766;-81
2021/07/01 06:35:24;;;;;;;17.68;10.55;;;;;;;20.33;69.59;97860.82;126229;1093;22758;-81
2021/07/01 06:38:11;;;;;;;19.68;10.88;;;;;;;20.33;69.58;97859.98;126138;1092;27297;-81
2021/07/01 06:41:02;;;;;;;16.13;10.58;;;;;;;20.34;69.49;97854.13;126376;1093;22864;-81
2021/07/01 06:43:49;;;;;;;14.58;11.13;;;;;;;20.35;69.71;97855.77;126614;1092;22781;-81
2021/07/01 06:46:35;;;;;;;16.17;10.30;;;;;;;20.37;69.60;97852.69;126568;1093;22753;-81
2021/07/01 06:49:23;;;;;;;14.28;9.83;;;;;;;20.38;69.56;97859.83;126585;1093;22825;-81
2021/07/01 06:52:13;;;;;;;14.40;9.43;;;;;;;20.41;69.34;97856.42;126446;1092;22794;-81
2021/07/01 06:55:02;;;;;;;15.33;9.63;;;;;;;20.46;69.37;97864.56;126371;1092;22853;-81
2021/07/01 06:57:41;;;;;;;15.53;9.50;;;;;;;20.53;69.09;97873.19;126496;1092;22825;-81
2021/07/01 07:00:10;;;;;;;12.15;9.08;;;;;;;20.58;69.38;97873.03;126587;1093;22913;-81
2021/07/01 07:02:38;;;;;;;10.97;8.17;;;;;;;20.66;69.56;97868.66;126495;1093;24434;-81
2021/07/01 07:05:08;;;;;;;14.25;8.80;;;;;;;20.73;68.86;97871.74;126523;1093;22788;-81
2021/07/01 07:07:35;;;;;;;10.25;7.65;;;;;;;20.78;68.62;97868.81;126577;1093;22774;-81
2021/07/01 07:10:05;;;;;;;10.93;8.18;;;;;;;20.81;68.13;97864.59;126275;1092;26309;-81
2021/07/01 07:12:38;;;;;;;13.23;7.45;;;;;;;20.84;67.80;97874.98;126720;1092;22794;-81
2021/07/01 07:15:11;;;;;;;10.55;7.08;;;;;;;20.84;68.06;97874.98;126583;1093;23575;-81
2021/07/01 07:17:39;;;;;;;9.70;7.20;;;;;;;20.85;67.72;97882.16;126606;1092;22762;-81
2021/07/01 07:20:07;;;;;;;22.15;6.28;;;;;;;20.79;66.96;97877.95;126668;1092;22758;-82
2021/07/01 07:22:39;;;;;;;11.68;7.48;;;;;;;20.71;67.41;97873.22;126607;1093;22836;-81
2021/07/01 07:25:09;;;;;;;8.65;7.20;;;;;;;20.67;67.78;97876.63;126554;1092;23005;-81
2021/07/01 07:27:39;;;;;;;12.58;7.00;;;;;;;20.61;68.22;97879.84;126635;1093;22778;-81
2021/07/01 07:30:07;;;;;;;13.80;7.05;;;;;;;20.62;68.40;97882.33;126439;1093;22763;-81
2021/07/01 07:32:50;;;;;;;10.08;6.80;;;;;;;20.66;68.55;97877.79;126461;1093;22788;-82
2021/07/01 07:35:17;;;;;;;10.53;6.73;;;;;;;20.70;68.67;97875.19;126661;1093;22785;-81
2021/07/01 07:37:44;;;;;;;8.85;7.60;;;;;;;20.73;68.41;97877.28;126494;1092;22891;-81
2021/07/01 07:40:12;;;;;;;11.45;7.35;;;;;;;20.77;68.03;97880.20;126297;1093;22774;-81
2021/07/01 07:42:43;;;;;;;13.40;6.78;;;;;;;20.75;67.79;97882.48;126496;1093;26280;-81
2021/07/01 07:45:11;;;;;;;16.80;7.58;;;;;;;20.73;67.84;97884.77;126764;1093;25983;-81
2021/07/01 07:47:52;;;;;;;12.63;7.10;;;;;;;20.75;67.61;97876.95;126431;1093;22926;-81
2021/07/01 07:50:20;;;;;;;10.95;6.65;;;;;;;20.75;67.88;97874.19;126617;1092;22764;-81
2021/07/01 07:52:52;;;;;;;14.00;7.25;;;;;;;20.75;68.01;97879.72;126738;1093;22721;-81
2021/07/01 07:55:26;;;;;;;15.83;7.38;;;;;;;20.76;68.06;97875.83;126668;1093;22983;-81
2021/07/01 07:57:56;;;;;;;11.03;7.23;;;;;;;20.78;68.02;97884.61;126634;1092;22778;-80
2021/07/01 08:00:27;;;;;;;13.85;7.63;;;;;;;20.74;67.80;97875.34;126533;1093;23693;-81
2021/07/01 08:03:01;;;;;;;16.43;8.80;;;;;;;20.73;67.95;97882.81;126602;1093;22740;-80
2021/07/01 08:05:32;;;;;;;17.30;7.80;;;;;;;20.66;68.06;97875.02;126653;1092;22754;-81
2021/07/01 08:08:00;;;;;;;25.15;9.05;;;;;;;20.61;67.94;97885.38;126478;1092;22795;-81
2021/07/01 08:10:31;;;;;;;12.13;6.90;;;;;;;20.55;68.26;97887.50;126376;1093;22948;-82
2021/07/01 08:13:02;;;;;;;12.13;7.20;;;;;;;20.50;68.10;97882.13;126325;1093;24449;-81
2021/07/01 08:15:30;;;;;;;14.10;6.90;;;;;;;20.37;68.07;97889.44;126227;1093;22768;-81
2021/07/01 08:18:00;;;;;;;11.55;6.20;;;;;;;20.29;68.40;97893.83;126178;1092;22803;-81
2021/07/01 08:20:27;;;;;;;10.18;7.15;;;;;;;20.20;68.41;97895.78;126246;1093;22759;-82
2021/07/01 08:22:56;;;;;;;11.20;6.48;;;;;;;20.12;68.42;97895.76;126149;1093;22778;-82
2021/07/01 08:25:26;;;;;;;12.28;6.93;;;;;;;20.07;68.79;97896.70;126258;1093;22754;-82
2021/07/01 08:27:54;;;;;;;11.67;5.60;;;;;;;20.02;69.08;97894.89;126084;1093;24514;-82
2021/07/01 08:30:24;;;;;;;10.30;5.70;;;;;;;19.99;69.08;97883.67;126267;1093;26328;-82
2021/07/01 08:33:06;;;;;;;10.57;5.87;;;;;;;19.97;69.80;97877.66;126164;1093;24572;-82
2021/07/01 08:35:33;;;;;;;10.80;5.97;;;;;;;19.93;70.74;97887.73;126209;1093;22784;-81
2021/07/01 08:38:03;;;;;;;8.68;5.90;;;;;;;19.85;71.40;97884.63;126263;1093;28483;-81
2021/07/01 08:40:33;;;;;;;13.18;6.13;;;;;;;19.74;71.81;97880.50;126170;1093;24126;-81
2021/07/01 08:43:03;;;;;;;12.03;5.90;;;;;;;19.53;71.60;97878.30;126241;1093;22754;-82
2021/07/01 08:46:01;;;;;;;12.18;6.38;;;;;;;19.37;71.80;97879.84;126250;1092;22980;-81
2021/07/01 08:48:42;;;;;;;13.23;5.80;;;;;;;19.18;72.80;97882.02;126157;1093;22829;-82
2021/07/01 08:51:10;;;;;;;12.38;5.35;;;;;;;19.08;72.72;97886.64;126295;1093;22754;-81
2021/07/01 08:53:40;;;;;;;12.28;5.68;;;;;;;19.03;72.86;97883.20;126529;1093;23539;-81
2021/07/01 08:56:11;;;;;;;9.38;4.83;;;;;;;18.99;73.03;97879.45;126870;1093;22778;-81
2021/07/01 08:58:47;;;;;;;14.65;5.83;;;;;;;18.97;73.40;97882.52;126862;1093;22923;-81
2021/07/01 09:01:18;;;;;;;11.58;5.18;;;;;;;18.94;72.68;97886.71;126673;1093;26232;-81
2021/07/01 09:03:47;;;;;;;11.25;4.65;;;;;;;18.99;72.54;97885.78;126576;1092;26057;-81
2021/07/01 09:06:23;;;;;;;9.53;4.83;;;;;;;19.01;72.44;97886.27;126534;1093;22775;-81
2021/07/01 09:08:53;;;;;;;8.45;4.10;;;;;;;19.03;72.08;97884.01;126863;1093;25967;-81
2021/07/01 09:11:27;;;;;;;5.23;3.60;;;;;;;19.06;71.82;97875.11;126758;1093;26226;-81
2021/07/01 09:14:10;;;;;;;8.63;3.77;;;;;;;19.11;71.66;97883.27;126466;1093;22913;-81
2021/07/01 09:16:43;;;;;;;6.73;3.85;;;;;;;19.10;71.67;97889.90;126586;1093;22811;-81
2021/07/01 09:19:31;;;;;;;5.80;3.10;;;;;;;19.11;72.17;97904.53;126250;1093;22752;-82
2021/07/01 09:21:59;;;;;;;7.38;3.78;;;;;;;19.15;72.31;97908.28;126211;1091;22765;-82
2021/07/01 09:24:34;;;;;;;8.10;3.50;;;;;;;19.26;72.14;97912.41;126307;1092;24418;-82
2021/07/01 09:27:09;;;;;;;7.13;3.15;;;;;;;19.38;71.47;97903.55;126254;1093;26006;-81
2021/07/01 09:29:41;;;;;;;6.75;3.75;;;;;;;19.45;71.48;97908.63;126248;1093;25963;-82
2021/07/01 09:32:10;;;;;;;6.40;2.90;;;;;;;19.48;70.95;97916.28;126143;1093;26354;-82
2021/07/01 09:34:44;;;;;;;3.88;2.40;;;;;;;19.46;69.56;97913.00;126172;1093;22815;-81
2021/07/01 09:37:12;;;;;;;5.45;2.70;;;;;;;19.44;70.17;97918.87;126237;1093;22744;-81
2021/07/01 09:39:43;;;;;;;5.70;2.65;;;;;;;19.48;70.56;97914.33;126379;1093;22830;-82
2021/07/01 09:42:13;;;;;;;5.13;2.97;;;;;;;19.60;70.27;97918.44;126042;1093;24438;-82
2021/07/01 09:44:41;;;;;;;7.48;2.70;;;;;;;19.66;70.53;97915.23;126222;1093;23523;-82
2021/07/01 09:47:10;;;;;;;3.47;2.60;;;;;;;19.70;70.49;97912.64;126233;1093;22772;-82
2021/07/01 09:49:43;;;;;;;8.40;3.45;;;;;;;19.76;70.10;97913.34;126224;1093;26668;-82
2021/07/01 09:52:15;;;;;;;6.50;3.13;;;;;;;19.87;69.85;97903.65;126199;1093;22786;-81
2021/07/01 09:55:01;;;;;;;6.13;3.35;;;;;;;19.92;68.73;97906.27;126234;1093;22766;-82
2021/07/01 09:57:51;;;;;;;4.53;2.27;;;;;;;19.96;68.58;97914.73;126296;1093;22778;-82
2021/07/01 10:00:18;;;;;;;4.10;2.20;;;;;;;19.95;69.01;97915.86;126256;1093;22756;-82
2021/07/01 10:02:47;;;;;;;3.78;2.45;;;;;;;19.93;68.77;97915.37;126234;1093;22806;-81
2021/07/01 10:05:27;;;;;;;5.20;1.73;;;;;;;19.95;67.65;97910.33;126096;1093;24431;-82
2021/07/01 10:07:55;;;;;;;3.28;1.98;;;;;;;19.97;67.11;97908.86;126268;1093;22765;-82
2021/07/01 10:10:22;;;;;;;6.88;3.08;;;;;;;19.97;68.62;97916.34;126236;1093;22754;-82
2021/07/01 10:13:07;;;;;;;4.65;2.18;;;;;;;19.99;68.14;97912.14;126574;1093;22769;-82
2021/07/01 10:15:36;;;;;;;5.73;2.65;;;;;;;20.07;68.92;97918.82;126105;1093;22848;-82
2021/07/01 10:18:14;;;;;;;5.68;2.30;;;;;;;20.19;68.38;97915.45;126252;1093;22802;-82
2021/07/01 10:20:42;;;;;;;5.35;2.35;;;;;;;20.32;68.33;97919.20;126214;1093;22747;-81
2021/07/01 10:23:23;;;;;;;7.88;3.08;;;;;;;20.44;68.25;97911.09;125985;1093;22792;-81
2021/07/01 10:25:54;;;;;;;5.93;2.80;;;;;;;20.57;68.02;97904.58;126151;1092;22840;-82
2021/07/01 10:28:25;;;;;;;2.78;2.33;;;;;;;20.69;67.43;97911.48;126259;1093;22760;-81
2021/07/01 10:31:08;;;;;;;7.20;2.28;;;;;;;20.81;66.96;97917.98;126142;1093;22788;-81
2021/07/01 10:33:58;;;;;;;2.60;1.90;;;;;;;20.92;66.28;97926.77;126209;1093;22760;-81
2021/07/01 10:36:27;;;;;;;5.03;2.60;;;;;;;20.93;66.30;97930.34;126205;1093;22764;-79
2021/07/01 10:38:54;;;;;;;5.60;2.68;;;;;;;20.91;65.41;97938.16;126161;1092;27371;-81
2021/07/01 10:41:37;;;;;;;5.50;2.38;;;;;;;20.79;65.81;97933.30;126132;1093;22794;-82
2021/07/01 10:44:06;;;;;;;7.53;3.60;;;;;;;20.73;66.26;97942.88;126199;1093;26692;-81
2021/07/01 10:46:48;;;;;;;4.50;2.90;;;;;;;20.74;66.44;97941.75;126164;1093;24142;-81
2021/07/01 10:49:17;;;;;;;5.45;3.30;;;;;;;20.77;66.68;97935.55;126467;1093;22769;-81
2021/07/01 10:52:00;;;;;;;6.25;3.80;;;;;;;20.78;66.41;97938.00;126604;1093;23521;-82
2021/07/01 10:54:28;;;;;;;5.78;3.08;;;;;;;20.78;66.38;97938.00;126707;1093;22919;-82
2021/07/01 10:57:07;;;;;;;5.78;3.43;;;;;;;20.83;66.08;97935.07;126638;1093;26279;-82
2021/07/01 10:59:54;;;;;;;9.40;3.23;;;;;;;20.98;66.18;97930.17;126768;1093;23440;-82
2021/07/01 11:02:29;;;;;;;7.00;3.45;;;;;;;21.21;66.56;97928.87;126819;1092;22841;-82
2021/07/01 11:05:02;;;;;;;7.85;3.73;;;;;;;21.40;66.08;97920.17;126754;1093;22785;-82
2021/07/01 11:07:45;;;;;;;6.85;3.70;;;;;;;21.49;64.50;97927.69;126484;1093;22771;-81
2021/07/01 11:10:38;;;;;;;4.53;2.70;;;;;;;21.54;64.28;97914.47;126136;1093;22793;-81
2021/07/01 11:13:09;;;;;;;;;;;;;;;21.61;64.23;97919.51;126265;1091;22749;-81
2021/07/01 11:16:02;;;;;;;4.98;3.13;;;;;;;21.66;63.65;97912.98;126177;1093;21604;-81
2021/07/01 11:18:47;;;;;;;6.93;4.25;;;;;;;21.88;62.94;97901.62;126186;1093;26367;-81
2021/07/01 11:21:17;;;;;;;13.78;5.43;;;;;;;22.14;62.11;97901.48;126160;1093;26242;-82
2021/07/01 11:23:47;;;;;;;7.48;4.13;;;;;;;22.39;62.32;97898.12;126154;1093;22822;-81
2021/07/01 11:26:30;;;;;;;8.63;4.65;;;;;;;22.59;60.70;97904.82;126093;1093;22798;-82
2021/07/01 11:29:12;;;;;;;6.50;3.08;;;;;;;22.68;59.03;97900.84;126189;1093;22781;-81
2021/07/01 11:31:49;;;;;;;3.53;2.83;;;;;;;22.58;59.48;97901.24;126158;1093;24453;-81
2021/07/01 11:34:18;;;;;;;4.78;3.18;;;;;;;22.46;59.56;97892.84;126244;1093;22824;-81
2021/07/01 11:36:51;;;;;;;6.53;3.38;;;;;;;22.51;60.28;97885.13;126273;1093;22812;-81
2021/07/01 11:39:27;;;;;;;6.63;3.38;;;;;;;22.89;61.01;97889.70;126215;1093;22925;-82
2021/07/01 11:41:56;;;;;;;4.25;3.35;;;;;;;23.33;59.58;97880.98;126045;1093;22809;-82
2021/07/01 11:44:23;;;;;;;5.20;3.43;;;;;;;23.64;58.79;97879.66;126245;1093;22922;-82
2021/07/01 11:46:52;;;;;;;7.20;3.40;;;;;;;23.84;58.23;97889.08;126791;1093;25980;-81
2021/07/01 11:49:20;;;;;;;;;;;;;;;23.88;58.59;97901.93;126782;1093;26242;-82
2021/07/01 11:51:47;;;;;;;5.15;3.38;;;;;;;24.00;57.76;97906.70;126754;1092;24514;-82